Terminal Aerodrome Forecast
Issued by NWS Binghamton, NY

Home | Current Version | Previous Version | Text Only | Print | Product List | Glossary On
Versions: 1 2 3 4 5 6 7 8 9 10 11 12 13 14 15 16 17 18
000
FTUS41 KBGM 301700 RRA
TAFSYR
TAF
KSYR 301746Z 3018/3118 32014G25KT 1SM -SHSN OVC015
      TEMPO 3018/3021 1/2SM SN
     FM302300 31016G21KT 4SM -SHSN BKN015 OVC025
     FM310600 31010KT P6SM BKN025
     FM311100 30008KT P6SM SCT025=

USA.gov is the U.S. government's official web portal to all federal, state and local government web resources and services.